Time;durP1;ratioP1;P1;durP2;ratioP2;P2;SDS_P1;SDS_P2;PMS_P1;PMS_P2;Temp;Humidity;BMP_temperature;BMP_pressure;BME280_temperature;BME280_humidity;BME280_pressure;Samples;Min_cycle;Max_cycle;Signal;HPM_P1;HPM_P2
2022/03/10 00:00:49;;;;;;;;;;;-2.20;99.90;;;;;;5097064;28;19973;-74
2022/03/10 00:03:14;;;;;;;;;;;-2.30;99.90;;;;;;5090963;28;19922;-73
2022/03/10 00:05:40;;;;;;;;;;;-2.30;99.90;;;;;;5092645;28;19912;-73
2022/03/10 00:08:06;;;;;;;;;;;-2.30;99.90;;;;;;5092412;28;19970;-74
2022/03/10 00:10:31;;;;;;;;;;;-2.30;99.90;;;;;;5090841;28;19969;-74
2022/03/10 00:12:57;;;;;;;;;;;-2.40;99.90;;;;;;5092176;28;20366;-75
2022/03/10 00:15:23;;;;;;;;;;;-2.50;99.90;;;;;;5092248;28;19912;-75
2022/03/10 00:17:49;;;;;;;;;;;-2.50;99.90;;;;;;5092203;28;20197;-74
2022/03/10 00:20:15;;;;;;;;;;;-2.60;99.90;;;;;;5092066;28;19916;-74
2022/03/10 00:22:45;;;;;;;;;;;-2.60;99.90;;;;;;5090542;28;19912;-74
2022/03/10 00:25:11;;;;;;;;;;;-2.60;99.90;;;;;;5090224;28;19973;-74
2022/03/10 00:27:37;;;;;;;;;;;-2.60;99.90;;;;;;5090862;28;19912;-74
2022/03/10 00:30:04;;;;;;;;;;;-2.70;99.90;;;;;;5092194;28;20275;-74
2022/03/10 00:32:29;;;;;;;;;;;-2.70;99.90;;;;;;5090626;28;19912;-74
2022/03/10 00:34:55;;;;;;;;;;;-2.70;99.90;;;;;;5095269;28;19912;-74
2022/03/10 00:37:20;;;;;;;;;;;-2.70;99.90;;;;;;5112195;28;19912;-74
2022/03/10 00:39:46;;;;;;;;;;;-2.60;99.90;;;;;;5110723;28;19911;-74
2022/03/10 00:42:12;;;;;;;;;;;-2.70;99.90;;;;;;5111792;28;19918;-74
2022/03/10 00:44:37;;;;;;;;;;;-2.70;99.90;;;;;;5111989;28;19916;-74
2022/03/10 00:47:03;;;;;;;;;;;-2.80;99.90;;;;;;5112095;28;19916;-75
2022/03/10 00:49:29;;;;;;;;;;;-2.80;99.90;;;;;;5112107;27;19942;-75
2022/03/10 00:51:57;;;;;;;;;;;-2.90;99.90;;;;;;5095022;28;19945;-75
2022/03/10 00:54:23;;;;;;;;;;;-3.00;99.90;;;;;;5093625;28;19912;-77
2022/03/10 00:56:49;;;;;;;;;;;-3.10;99.90;;;;;;5093177;28;19948;-74
2022/03/10 00:59:15;;;;;;;;;;;-3.20;99.90;;;;;;5093470;28;19908;-74
2022/03/10 01:01:40;;;;;;;;;;;-3.20;99.90;;;;;;5129583;27;19915;-73
2022/03/10 01:04:06;;;;;;;;;;;-3.20;99.90;;;;;;5113479;27;19907;-73
2022/03/10 01:06:32;;;;;;;;;;;-3.20;99.90;;;;;;5115074;27;19919;-73
2022/03/10 01:08:57;;;;;;;;;;;-3.30;99.90;;;;;;5111577;28;20418;-75
2022/03/10 01:11:23;;;;;;;;;;;-3.30;99.90;;;;;;5126727;27;19915;-74
2022/03/10 01:13:49;;;;;;;;;;;-3.30;99.90;;;;;;5113678;27;20260;-75
2022/03/10 01:16:14;;;;;;;;;;;-3.40;99.90;;;;;;5113461;27;19918;-74
2022/03/10 01:18:40;;;;;;;;;;;-3.40;99.90;;;;;;5131962;27;20399;-73
2022/03/10 01:21:06;;;;;;;;;;;-3.40;99.90;;;;;;5138206;27;20354;-73
2022/03/10 01:23:31;;;;;;;;;;;-3.40;99.90;;;;;;5113699;27;19994;-74
2022/03/10 01:25:57;;;;;;;;;;;-3.40;99.90;;;;;;5113561;27;19922;-75
2022/03/10 01:28:23;;;;;;;;;;;-3.40;99.90;;;;;;5132613;27;20266;-75
2022/03/10 01:30:49;;;;;;;;;;;-3.40;99.90;;;;;;5121523;27;19920;-76
2022/03/10 01:33:14;;;;;;;;;;;-3.40;99.90;;;;;;5111393;28;19912;-73
2022/03/10 01:35:40;;;;;;;;;;;-3.40;99.90;;;;;;5093084;28;19916;-73
2022/03/10 01:38:06;;;;;;;;;;;-3.50;99.90;;;;;;5092946;28;19961;-74
2022/03/10 01:40:32;;;;;;;;;;;-3.50;99.90;;;;;;5093307;28;19922;-74
2022/03/10 01:42:58;;;;;;;;;;;-3.60;99.90;;;;;;5092822;28;20268;-75
2022/03/10 01:45:23;;;;;;;;;;;-3.80;99.90;;;;;;5111423;28;19920;-75
2022/03/10 01:47:49;;;;;;;;;;;-3.90;99.90;;;;;;5093193;28;19912;-74
2022/03/10 01:50:15;;;;;;;;;;;-3.90;99.90;;;;;;5111382;28;19961;-75
2022/03/10 01:52:41;;;;;;;;;;;-4.00;99.90;;;;;;5092488;28;20003;-74
2022/03/10 01:55:07;;;;;;;;;;;-4.00;99.90;;;;;;5110833;28;19950;-75
2022/03/10 01:57:34;;;;;;;;;;;-4.00;99.90;;;;;;5092754;28;19920;-74
2022/03/10 02:00:00;;;;;;;;;;;-3.90;99.90;;;;;;5098892;28;20355;-74
2022/03/10 02:02:40;;;;;;;;;;;-3.90;99.90;;;;;;5088351;28;19919;-74
2022/03/10 02:05:06;;;;;;;;;;;-3.90;99.90;;;;;;5088264;28;19913;-74
2022/03/10 02:10:16;;;;;;;;;;;-4.10;99.90;;;;;;5088166;28;19918;-75
2022/03/10 02:12:46;;;;;;;;;;;-4.20;99.90;;;;;;5086783;28;19999;-74
2022/03/10 02:18:07;;;;;;;;;;;-4.30;99.90;;;;;;5088737;28;19999;-75
2022/03/10 02:20:34;;;;;;;;;;;-4.30;99.90;;;;;;5087923;28;19924;-75
2022/03/10 02:22:59;;;;;;;;;;;-4.30;99.90;;;;;;5086716;28;19975;-74
2022/03/10 02:25:27;;;;;;;;;;;-4.40;99.90;;;;;;5086282;28;19913;-75
2022/03/10 02:27:53;;;;;;;;;;;-4.50;99.90;;;;;;5078171;28;19917;-74
2022/03/10 02:30:20;;;;;;;;;;;-4.50;99.90;;;;;;5066467;28;20307;-74
2022/03/10 02:32:46;;;;;;;;;;;-4.60;99.90;;;;;;5067719;28;19913;-75
2022/03/10 02:35:12;;;;;;;;;;;-4.60;99.90;;;;;;5066055;28;19913;-74
2022/03/10 02:37:38;;;;;;;;;;;-4.70;99.90;;;;;;5067689;28;19974;-74
2022/03/10 02:40:04;;;;;;;;;;;-4.80;99.90;;;;;;5066229;28;19959;-74
2022/03/10 02:42:33;;;;;;;;;;;-4.80;99.90;;;;;;5066151;28;19932;-74
2022/03/10 02:44:58;;;;;;;;;;;-4.90;99.90;;;;;;5066190;28;19916;-74
2022/03/10 02:47:24;;;;;;;;;;;-4.90;99.90;;;;;;5068072;28;19921;-74
2022/03/10 02:49:50;;;;;;;;;;;-5.00;99.90;;;;;;5067371;28;20511;-74
2022/03/10 02:52:15;;;;;;;;;;;-5.00;99.90;;;;;;5067728;28;20326;-74
2022/03/10 02:54:41;;;;;;;;;;;-5.10;99.90;;;;;;5067526;28;19909;-73
2022/03/10 02:57:08;;;;;;;;;;;-5.10;99.90;;;;;;5067750;28;19916;-73
2022/03/10 02:59:34;;;;;;;;;;;-5.20;99.90;;;;;;5065472;28;19947;-74
2022/03/10 03:01:59;;;;;;;;;;;-5.20;99.90;;;;;;5065242;28;19983;-75
2022/03/10 03:04:25;;;;;;;;;;;-5.20;99.90;;;;;;5065493;28;19916;-74
2022/03/10 03:06:51;;;;;;;;;;;-5.30;99.90;;;;;;5067414;28;20008;-73
2022/03/10 03:09:17;;;;;;;;;;;-5.30;99.90;;;;;;5065590;28;19908;-74
2022/03/10 03:11:43;;;;;;;;;;;-5.30;99.90;;;;;;5065708;28;19923;-73
2022/03/10 03:14:08;;;;;;;;;;;-5.40;99.90;;;;;;5051667;28;20643;-73
2022/03/10 03:16:34;;;;;;;;;;;-5.40;99.90;;;;;;5052266;28;19916;-75
2022/03/10 03:19:00;;;;;;;;;;;-5.40;99.90;;;;;;5054033;28;19909;-74
2022/03/10 03:21:25;;;;;;;;;;;-5.40;99.90;;;;;;5052989;28;20317;-75
2022/03/10 03:23:51;;;;;;;;;;;-5.60;99.90;;;;;;5053187;28;20319;-74
2022/03/10 03:26:17;;;;;;;;;;;-5.50;99.90;;;;;;5051924;28;20262;-73
2022/03/10 03:28:43;;;;;;;;;;;-5.40;99.90;;;;;;5053719;28;20387;-74
2022/03/10 03:31:10;;;;;;;;;;;-5.40;99.90;;;;;;5051779;28;19927;-73
2022/03/10 03:33:39;;;;;;;;;;;-5.50;99.90;;;;;;5051818;28;19952;-75
2022/03/10 03:36:05;;;;;;;;;;;-5.50;99.90;;;;;;5053168;28;19927;-74
2022/03/10 03:38:31;;;;;;;;;;;-5.60;99.90;;;;;;5053405;28;19995;-73
2022/03/10 03:40:57;;;;;;;;;;;-5.60;99.90;;;;;;5052921;28;19971;-75
2022/03/10 03:43:23;;;;;;;;;;;-5.60;99.90;;;;;;5051382;28;19912;-74
2022/03/10 03:45:48;;;;;;;;;;;-5.60;99.90;;;;;;5051700;28;19927;-75
2022/03/10 03:48:14;;;;;;;;;;;-5.60;99.90;;;;;;5053366;28;19916;-75
2022/03/10 03:50:40;;;;;;;;;;;-5.70;99.90;;;;;;5051508;28;19920;-75
2022/03/10 03:53:05;;;;;;;;;;;-5.70;99.90;;;;;;5051672;28;19909;-75
2022/03/10 03:55:31;;;;;;;;;;;-5.70;99.90;;;;;;5052616;28;19971;-74
2022/03/10 03:57:57;;;;;;;;;;;-5.60;99.90;;;;;;5053571;28;19916;-72
2022/03/10 04:00:22;;;;;;;;;;;-5.70;99.90;;;;;;5050668;28;19912;-74
2022/03/10 04:02:48;;;;;;;;;;;-5.70;99.90;;;;;;5051444;28;19912;-74
2022/03/10 04:05:14;;;;;;;;;;;-5.70;99.90;;;;;;5051273;28;19917;-75
2022/03/10 04:07:39;;;;;;;;;;;-5.70;99.90;;;;;;5053031;28;19909;-74
2022/03/10 04:10:06;;;;;;;;;;;-5.70;99.90;;;;;;5048103;28;19914;-75
2022/03/10 04:12:32;;;;;;;;;;;-5.70;99.90;;;;;;5031202;28;19917;-74
2022/03/10 04:14:58;;;;;;;;;;;-5.70;99.90;;;;;;5034659;28;20296;-75
2022/03/10 04:17:24;;;;;;;;;;;-5.70;99.90;;;;;;5051422;28;19917;-75
2022/03/10 04:19:50;;;;;;;;;;;-5.80;99.90;;;;;;5050900;28;19983;-74
2022/03/10 04:22:15;;;;;;;;;;;-5.80;99.90;;;;;;5052753;28;19925;-75
2022/03/10 04:24:41;;;;;;;;;;;-5.90;99.90;;;;;;5049793;28;19999;-74
2022/03/10 04:27:06;;;;;;;;;;;-5.80;99.90;;;;;;5052722;28;19921;-73
2022/03/10 04:29:32;;;;;;;;;;;-5.80;99.90;;;;;;5052309;28;19921;-74
2022/03/10 04:31:58;;;;;;;;;;;-5.80;99.90;;;;;;5032035;28;19979;-74
2022/03/10 04:34:24;;;;;;;;;;;-5.80;99.90;;;;;;5030793;28;20004;-74
2022/03/10 04:36:50;;;;;;;;;;;-5.90;99.90;;;;;;5051127;28;20438;-74
2022/03/10 04:39:15;;;;;;;;;;;-5.90;99.90;;;;;;5050686;28;19913;-74
2022/03/10 04:41:41;;;;;;;;;;;-5.90;99.90;;;;;;5050342;28;19932;-75
2022/03/10 04:44:07;;;;;;;;;;;-5.90;99.90;;;;;;5051922;28;19908;-74
2022/03/10 04:46:32;;;;;;;;;;;-5.80;99.90;;;;;;5052055;28;19921;-74
2022/03/10 04:48:58;;;;;;;;;;;-5.90;99.90;;;;;;5050840;28;19917;-74
2022/03/10 04:51:24;;;;;;;;;;;-5.80;99.90;;;;;;5050538;28;19999;-75
2022/03/10 04:53:49;;;;;;;;;;;-5.80;99.90;;;;;;5050376;28;19915;-74
2022/03/10 04:56:15;;;;;;;;;;;-5.80;99.90;;;;;;5051729;28;19917;-74
2022/03/10 04:58:41;;;;;;;;;;;-5.70;99.90;;;;;;5052008;28;20348;-73
2022/03/10 05:01:07;;;;;;;;;;;-5.70;99.90;;;;;;5049675;28;19925;-75
2022/03/10 05:03:33;;;;;;;;;;;-5.70;99.90;;;;;;5051819;28;19977;-73
2022/03/10 05:05:59;;;;;;;;;;;-5.70;99.90;;;;;;5051501;28;20016;-75
2022/03/10 05:08:25;;;;;;;;;;;-5.70;99.90;;;;;;5050375;28;19917;-74
2022/03/10 05:10:50;;;;;;;;;;;-5.70;99.90;;;;;;5051677;28;19917;-73
2022/03/10 05:13:16;;;;;;;;;;;-5.60;99.90;;;;;;5051291;28;19909;-74
2022/03/10 05:15:43;;;;;;;;;;;-5.60;99.90;;;;;;5049788;28;19920;-75
2022/03/10 05:18:08;;;;;;;;;;;-5.60;99.90;;;;;;5050021;28;20277;-74
2022/03/10 05:20:34;;;;;;;;;;;-5.60;99.90;;;;;;5042925;28;20322;-75
2022/03/10 05:23:01;;;;;;;;;;;-5.60;99.90;;;;;;5030015;28;20357;-74
2022/03/10 05:25:40;;;;;;;;;;;-5.60;99.90;;;;;;5036984;28;20340;-73
2022/03/10 05:28:15;;;;;;;;;;;-5.60;99.90;;;;;;5051262;28;20304;-74
2022/03/10 05:30:41;;;;;;;;;;;-5.50;99.90;;;;;;5049697;28;20311;-74
2022/03/10 05:33:08;;;;;;;;;;;-5.50;99.90;;;;;;5050842;28;19909;-75
2022/03/10 05:35:34;;;;;;;;;;;-5.50;99.90;;;;;;5040718;28;19964;-73
2022/03/10 05:38:00;;;;;;;;;;;-5.40;99.90;;;;;;5031103;28;20021;-73
2022/03/10 05:40:26;;;;;;;;;;;-5.30;99.90;;;;;;5038309;28;19927;-74
2022/03/10 05:42:52;;;;;;;;;;;-5.30;99.90;;;;;;5049245;28;20035;-74
2022/03/10 05:45:20;;;;;;;;;;;-5.20;99.90;;;;;;5049124;28;19959;-74
2022/03/10 05:47:46;;;;;;;;;;;-5.20;99.90;;;;;;5049636;28;19912;-74
2022/03/10 05:50:12;;;;;;;;;;;-5.20;99.90;;;;;;5050687;28;19908;-75
2022/03/10 05:52:38;;;;;;;;;;;-5.20;99.90;;;;;;5049317;28;19909;-74
2022/03/10 05:55:04;;;;;;;;;;;-5.00;99.90;;;;;;5049329;28;19952;-74
2022/03/10 05:57:30;;;;;;;;;;;-4.80;99.90;;;;;;5050638;28;19971;-75
2022/03/10 05:59:56;;;;;;;;;;;-4.50;99.90;;;;;;5049389;28;20199;-76
2022/03/10 06:02:22;;;;;;;;;;;-4.20;99.90;;;;;;5050793;28;20285;-76
2022/03/10 06:04:47;;;;;;;;;;;-3.90;99.90;;;;;;5049569;28;20005;-73
2022/03/10 06:07:13;;;;;;;;;;;-3.70;99.90;;;;;;5050961;28;19966;-73
2022/03/10 06:09:38;;;;;;;;;;;-3.40;99.90;;;;;;5049750;28;19913;-73
2022/03/10 06:12:04;;;;;;;;;;;-3.10;99.90;;;;;;5029575;28;20289;-74
2022/03/10 06:14:30;;;;;;;;;;;-3.00;99.90;;;;;;5029487;28;20000;-74
2022/03/10 06:16:56;;;;;;;;;;;-2.90;99.90;;;;;;5050462;28;20369;-75
2022/03/10 06:19:22;;;;;;;;;;;-2.80;99.90;;;;;;5049675;28;19920;-75
2022/03/10 06:21:48;;;;;;;;;;;-2.70;99.90;;;;;;5050794;28;20687;-73
2022/03/10 06:24:14;;;;;;;;;;;-2.50;99.90;;;;;;5050897;28;19997;-75
2022/03/10 06:26:39;;;;;;;;;;;-2.40;99.90;;;;;;5050144;28;19927;-74
2022/03/10 06:29:05;;;;;;;;;;;-2.30;99.90;;;;;;5049249;28;19909;-73
2022/03/10 06:31:31;;;;;;;;;;;-2.30;99.90;;;;;;5050598;28;19920;-74
2022/03/10 06:33:57;;;;;;;;;;;-2.20;99.90;;;;;;5049091;28;19909;-74
2022/03/10 06:36:24;;;;;;;;;;;-2.30;99.90;;;;;;5035147;28;19921;-75
2022/03/10 06:38:49;;;;;;;;;;;-2.20;99.90;;;;;;5029161;28;19913;-74
2022/03/10 06:41:15;;;;;;;;;;;-2.10;99.90;;;;;;5044112;28;20390;-73
2022/03/10 06:43:41;;;;;;;;;;;-2.00;99.90;;;;;;5048545;28;19915;-73
2022/03/10 06:46:07;;;;;;;;;;;-1.80;99.90;;;;;;5050487;28;20353;-75
2022/03/10 06:48:33;;;;;;;;;;;-1.60;99.90;;;;;;5051875;28;20016;-75
2022/03/10 06:50:58;;;;;;;;;;;-1.50;99.90;;;;;;5054289;28;20698;-73
2022/03/10 06:53:24;;;;;;;;;;;-1.40;99.90;;;;;;5053881;28;20288;-73
2022/03/10 06:55:50;;;;;;;;;;;-1.30;99.90;;;;;;5052487;28;20006;-74
2022/03/10 06:58:15;;;;;;;;;;;-1.20;99.90;;;;;;5053801;28;19908;-73
2022/03/10 07:00:41;;;;;;;;;;;-1.00;99.90;;;;;;5051982;28;20307;-74
2022/03/10 07:03:07;;;;;;;;;;;-0.80;99.90;;;;;;5051956;28;20256;-74
2022/03/10 07:05:32;;;;;;;;;;;-0.60;99.90;;;;;;5052187;28;20359;-76
2022/03/10 07:07:58;;;;;;;;;;;-0.70;99.90;;;;;;5053870;28;19970;-74
2022/03/10 07:10:25;;;;;;;;;;;-0.70;99.90;;;;;;5052083;28;19909;-72
2022/03/10 07:12:51;;;;;;;;;;;-0.50;99.90;;;;;;5053740;28;19913;-74
2022/03/10 07:15:16;;;;;;;;;;;-0.20;99.90;;;;;;5053324;28;19916;-73
2022/03/10 07:17:42;;;;;;;;;;;-0.20;99.90;;;;;;5052120;28;19952;-73
2022/03/10 07:20:08;;;;;;;;;;;-0.20;99.90;;;;;;5052094;28;19915;-74
2022/03/10 07:22:35;;;;;;;;;;;-0.10;99.90;;;;;;5052092;28;20416;-76
2022/03/10 07:25:04;;;;;;;;;;;-0.20;99.90;;;;;;5053875;28;19912;-76
2022/03/10 07:27:29;;;;;;;;;;;-0.50;99.90;;;;;;5053631;28;19925;-75
2022/03/10 07:29:55;;;;;;;;;;;-0.50;99.90;;;;;;5053272;28;19935;-76
2022/03/10 07:32:22;;;;;;;;;;;-0.60;99.90;;;;;;5053374;28;19924;-76
2022/03/10 07:34:48;;;;;;;;;;;-0.60;99.90;;;;;;5050094;28;20374;-74
2022/03/10 07:37:15;;;;;;;;;;;-0.60;99.90;;;;;;5031980;28;20016;-75
2022/03/10 07:39:41;;;;;;;;;;;-0.80;99.90;;;;;;5032734;28;19909;-75
2022/03/10 07:42:06;;;;;;;;;;;-0.80;99.90;;;;;;5053287;28;19928;-73
2022/03/10 07:44:32;;;;;;;;;;;-0.70;99.90;;;;;;5051753;28;20296;-73
2022/03/10 07:46:58;;;;;;;;;;;-0.60;99.90;;;;;;5033256;28;20006;-73
2022/03/10 07:49:24;;;;;;;;;;;-0.50;99.90;;;;;;5031844;28;20361;-76
2022/03/10 07:51:49;;;;;;;;;;;-0.60;99.90;;;;;;5050505;28;20355;-74
2022/03/10 07:54:15;;;;;;;;;;;-0.70;99.70;;;;;;5052926;28;20300;-75
2022/03/10 07:56:41;;;;;;;;;;;-0.80;99.50;;;;;;5051534;28;19916;-76
2022/03/10 07:59:06;;;;;;;;;;;-0.80;99.70;;;;;;5053174;28;20228;-76
2022/03/10 08:01:32;;;;;;;;;;;-0.70;99.90;;;;;;5051254;28;19937;-76
2022/03/10 08:03:58;;;;;;;;;;;-0.60;99.80;;;;;;5052476;28;20002;-75
2022/03/10 08:06:26;;;;;;;;;;;-0.50;98.20;;;;;;5052676;28;20011;-76
2022/03/10 08:08:51;;;;;;;;;;;-0.30;98.30;;;;;;5051456;28;19958;-75
2022/03/10 08:11:17;;;;;;;;;;;-0.40;99.10;;;;;;5051390;28;19960;-75
2022/03/10 08:13:44;;;;;;;;;;;-0.40;98.60;;;;;;5052592;28;19951;-74
2022/03/10 08:16:10;;;;;;;;;;;-0.40;98.80;;;;;;5051205;28;19968;-74
2022/03/10 08:18:36;;;;;;;;;;;-0.50;97.80;;;;;;5052602;28;19909;-74
2022/03/10 08:21:02;;;;;;;;;;;-0.50;98.00;;;;;;5052101;28;20324;-74
2022/03/10 08:23:28;;;;;;;;;;;-0.30;97.20;;;;;;5052022;28;20004;-75
2022/03/10 08:25:54;;;;;;;;;;;-0.10;98.00;;;;;;5051011;28;20331;-72
2022/03/10 08:28:20;;;;;;;;;;;-0.20;97.30;;;;;;5050772;28;19913;-75
2022/03/10 08:30:45;;;;;;;;;;;-0.20;97.50;;;;;;5052044;28;19921;-74
2022/03/10 08:33:11;;;;;;;;;;;0.00;96.90;;;;;;5052073;28;19966;-73
2022/03/10 08:35:37;;;;;;;;;;;0.20;96.20;;;;;;5050331;28;20234;-75
2022/03/10 08:38:03;;;;;;;;;;;0.40;96.90;;;;;;5050589;28;20439;-72
2022/03/10 08:40:29;;;;;;;;;;;0.50;96.80;;;;;;5051932;28;19916;-73
2022/03/10 08:42:55;;;;;;;;;;;0.60;96.20;;;;;;5051884;28;19962;-74
2022/03/10 08:45:21;;;;;;;;;;;0.40;96.10;;;;;;5050006;28;19908;-74
2022/03/10 08:47:47;;;;;;;;;;;0.30;95.20;;;;;;5050613;28;19909;-73
2022/03/10 08:50:13;;;;;;;;;;;0.30;94.90;;;;;;5051452;28;20229;-74
2022/03/10 08:52:39;;;;;;;;;;;0.20;94.20;;;;;;5051655;28;19909;-74
2022/03/10 08:55:05;;;;;;;;;;;0.10;95.40;;;;;;5051699;28;19932;-74
2022/03/10 08:57:31;;;;;;;;;;;0.20;94.80;;;;;;5052100;28;19925;-75
2022/03/10 08:59:57;;;;;;;;;;;0.50;94.90;;;;;;5051060;28;19944;-74
2022/03/10 09:02:23;;;;;;;;;;;0.80;94.50;;;;;;5051394;28;19972;-74
2022/03/10 09:04:49;;;;;;;;;;;0.90;95.00;;;;;;5051458;28;19909;-73
2022/03/10 09:07:15;;;;;;;;;;;1.10;93.90;;;;;;5051953;28;19924;-73
2022/03/10 09:09:40;;;;;;;;;;;1.30;93.10;;;;;;5049758;28;20365;-73
2022/03/10 09:12:06;;;;;;;;;;;1.40;92.10;;;;;;5051239;28;19928;-75
2022/03/10 09:14:32;;;;;;;;;;;1.70;93.00;;;;;;5050209;28;19916;-72
2022/03/10 09:16:58;;;;;;;;;;;1.90;91.60;;;;;;5051469;28;19921;-73
2022/03/10 09:19:23;;;;;;;;;;;2.10;91.40;;;;;;5051155;28;19920;-74
2022/03/10 09:21:49;;;;;;;;;;;2.00;90.00;;;;;;5049588;28;19947;-73
2022/03/10 09:24:15;;;;;;;;;;;1.90;90.60;;;;;;5051371;28;19909;-74
2022/03/10 09:26:40;;;;;;;;;;;1.80;88.70;;;;;;5049779;28;19917;-73
2022/03/10 09:29:06;;;;;;;;;;;1.80;87.80;;;;;;5051004;28;20246;-74
2022/03/10 09:31:32;;;;;;;;;;;1.70;87.70;;;;;;5051069;28;19975;-74
2022/03/10 09:33:58;;;;;;;;;;;1.60;86.80;;;;;;5050968;28;19913;-73
2022/03/10 09:36:26;;;;;;;;;;;1.50;88.80;;;;;;5029634;28;19921;-74
2022/03/10 09:38:54;;;;;;;;;;;1.60;89.70;;;;;;5046218;28;19958;-76
2022/03/10 09:41:20;;;;;;;;;;;1.50;85.20;;;;;;5045311;28;19975;-75
2022/03/10 09:43:46;;;;;;;;;;;1.60;85.10;;;;;;5051095;28;19916;-75
2022/03/10 09:46:12;;;;;;;;;;;1.60;85.70;;;;;;5050780;28;19948;-76
2022/03/10 09:48:39;;;;;;;;;;;1.70;86.20;;;;;;5051762;28;19912;-77
2022/03/10 09:51:05;;;;;;;;;;;1.60;84.50;;;;;;5049995;28;20039;-76
2022/03/10 09:53:31;;;;;;;;;;;1.50;83.20;;;;;;5049831;28;19958;-78
2022/03/10 09:55:58;;;;;;;;;;;1.40;86.00;;;;;;5049757;28;19936;-74
2022/03/10 09:58:23;;;;;;;;;;;1.50;85.10;;;;;;5049702;28;20345;-75
2022/03/10 10:00:49;;;;;;;;;;;1.50;85.30;;;;;;5048566;28;19925;-74
2022/03/10 10:03:15;;;;;;;;;;;1.50;85.30;;;;;;5050680;28;19913;-74
2022/03/10 10:05:40;;;;;;;;;;;1.60;86.30;;;;;;5050958;28;19924;-76
2022/03/10 10:08:11;;;;;;;;;;;1.80;86.10;;;;;;5050913;28;20353;-74
2022/03/10 10:10:39;;;;;;;;;;;2.00;85.80;;;;;;5048900;28;20043;-74
2022/03/10 10:13:06;;;;;;;;;;;1.80;81.30;;;;;;5049325;28;19917;-76
2022/03/10 10:15:36;;;;;;;;;;;1.60;85.10;;;;;;5049508;28;20439;-76
2022/03/10 10:18:02;;;;;;;;;;;1.80;85.10;;;;;;5050162;28;19912;-75
2022/03/10 10:20:31;;;;;;;;;;;2.00;84.50;;;;;;5041920;28;20427;-75
2022/03/10 10:23:14;;;;;;;;;;;2.20;83.10;;;;;;5032123;28;20273;-73
2022/03/10 10:25:47;;;;;;;;;;;2.30;81.90;;;;;;5043656;28;19960;-74
2022/03/10 10:28:27;;;;;;;;;;;2.20;82.60;;;;;;5054679;28;19913;-73
2022/03/10 10:31:11;;;;;;;;;;;2.40;81.50;;;;;;5054330;28;19920;-74
2022/03/10 10:33:37;;;;;;;;;;;2.40;81.10;;;;;;5052934;28;19916;-74
2022/03/10 10:36:15;;;;;;;;;;;2.40;78.10;;;;;;5054403;28;20453;-76
2022/03/10 10:38:42;;;;;;;;;;;2.30;77.50;;;;;;5053182;28;19963;-72
2022/03/10 10:41:15;;;;;;;;;;;2.40;80.00;;;;;;5053812;28;19927;-74
2022/03/10 10:43:42;;;;;;;;;;;2.60;79.30;;;;;;5054416;28;20260;-74
2022/03/10 10:46:20;;;;;;;;;;;2.80;79.20;;;;;;5040073;28;19917;-75
2022/03/10 10:48:47;;;;;;;;;;;2.70;78.30;;;;;;5034479;28;19913;-75
2022/03/10 10:51:13;;;;;;;;;;;3.00;77.70;;;;;;5047608;28;19925;-75
2022/03/10 10:53:40;;;;;;;;;;;3.00;76.10;;;;;;5052581;28;19908;-74
2022/03/10 10:56:06;;;;;;;;;;;2.80;76.70;;;;;;5052853;28;20347;-74
2022/03/10 10:58:32;;;;;;;;;;;2.70;77.00;;;;;;5054066;28;19909;-74
2022/03/10 11:00:58;;;;;;;;;;;2.80;77.40;;;;;;5053404;28;20049;-75
2022/03/10 11:03:24;;;;;;;;;;;2.90;76.90;;;;;;5052530;28;20265;-75
2022/03/10 11:05:51;;;;;;;;;;;2.90;75.10;;;;;;5053811;28;19943;-75
2022/03/10 11:08:23;;;;;;;;;;;2.80;76.30;;;;;;5054026;28;19909;-74
2022/03/10 11:10:50;;;;;;;;;;;2.90;75.60;;;;;;5052250;28;20004;-75
2022/03/10 11:13:15;;;;;;;;;;;3.00;75.90;;;;;;5052196;28;19948;-76
2022/03/10 11:15:42;;;;;;;;;;;2.90;75.30;;;;;;5053943;28;19944;-74
2022/03/10 11:18:12;;;;;;;;;;;2.90;75.80;;;;;;5053781;28;19909;-74
2022/03/10 11:20:44;;;;;;;;;;;3.00;75.60;;;;;;5053201;28;20349;-75
2022/03/10 11:23:30;;;;;;;;;;;3.30;74.50;;;;;;5052116;28;19909;-75
2022/03/10 11:25:59;;;;;;;;;;;3.40;73.70;;;;;;5052322;28;19927;-76
2022/03/10 11:28:30;;;;;;;;;;;3.40;72.20;;;;;;5052163;28;19947;-75
2022/03/10 11:30:59;;;;;;;;;;;3.30;73.00;;;;;;5051682;28;19921;-75
2022/03/10 11:33:29;;;;;;;;;;;3.20;73.50;;;;;;5051236;28;19919;-75
2022/03/10 11:35:55;;;;;;;;;;;3.20;72.20;;;;;;5053620;28;19966;-75
2022/03/10 11:38:30;;;;;;;;;;;3.00;73.90;;;;;;5051952;28;19913;-75
2022/03/10 11:40:56;;;;;;;;;;;2.90;72.30;;;;;;5042167;28;20404;-74
2022/03/10 11:43:30;;;;;;;;;;;2.70;71.50;;;;;;5033560;28;19909;-77
2022/03/10 11:46:16;;;;;;;;;;;2.70;72.70;;;;;;5043197;28;19939;-76
2022/03/10 11:48:42;;;;;;;;;;;3.00;73.30;;;;;;5026979;28;19909;-76
2022/03/10 11:51:09;;;;;;;;;;;2.90;71.00;;;;;;5044309;28;19954;-74
2022/03/10 11:53:54;;;;;;;;;;;2.70;71.40;;;;;;5052931;28;19909;-74
2022/03/10 11:56:31;;;;;;;;;;;2.60;73.40;;;;;;5051592;28;20257;-75
2022/03/10 11:59:15;;;;;;;;;;;2.60;71.70;;;;;;5053166;28;19912;-75
2022/03/10 12:01:44;;;;;;;;;;;2.00;71.90;;;;;;5050886;28;19932;-74
2022/03/10 12:04:15;;;;;;;;;;;1.30;72.70;;;;;;5051113;28;19909;-77
2022/03/10 12:06:46;;;;;;;;;;;0.80;74.20;;;;;;5051320;28;19962;-74
2022/03/10 12:09:23;;;;;;;;;;;0.50;76.20;;;;;;5051283;28;19963;-74
2022/03/10 12:11:51;;;;;;;;;;;0.40;76.30;;;;;;5051135;28;19929;-75
2022/03/10 12:14:24;;;;;;;;;;;0.20;75.90;;;;;;5052947;28;19913;-75
2022/03/10 12:16:50;;;;;;;;;;;0.00;76.30;;;;;;5052658;28;20359;-75
2022/03/10 12:19:15;;;;;;;;;;;-0.20;77.40;;;;;;5052752;28;19909;-75
2022/03/10 12:21:41;;;;;;;;;;;-0.30;77.60;;;;;;5052290;28;19920;-75
2022/03/10 12:24:11;;;;;;;;;;;-0.30;77.90;;;;;;5052333;28;19909;-75
2022/03/10 12:26:38;;;;;;;;;;;-0.40;77.80;;;;;;5051025;28;20271;-75
2022/03/10 12:29:07;;;;;;;;;;;-0.60;78.10;;;;;;5050836;28;19912;-75
2022/03/10 12:31:35;;;;;;;;;;;-0.70;79.40;;;;;;5052259;28;19920;-75
2022/03/10 12:34:02;;;;;;;;;;;-0.70;78.10;;;;;;5052076;28;20042;-75
2022/03/10 12:36:42;;;;;;;;;;;-0.70;78.60;;;;;;5051971;28;19913;-75
2022/03/10 12:39:12;;;;;;;;;;;-0.60;79.30;;;;;;5052134;28;20058;-74
2022/03/10 12:41:42;;;;;;;;;;;-0.70;78.50;;;;;;5052255;28;19920;-75
2022/03/10 12:44:09;;;;;;;;;;;-0.70;77.20;;;;;;5050571;28;19909;-73
2022/03/10 12:46:36;;;;;;;;;;;-0.80;76.20;;;;;;5033590;28;19913;-75
2022/03/10 12:49:05;;;;;;;;;;;-0.80;77.60;;;;;;5030557;28;20013;-75
2022/03/10 12:51:33;;;;;;;;;;;-0.80;79.20;;;;;;5046408;28;19925;-75
2022/03/10 12:53:59;;;;;;;;;;;-0.80;77.80;;;;;;5052083;28;20368;-74
2022/03/10 12:56:25;;;;;;;;;;;-0.80;76.70;;;;;;5051569;28;20323;-75
2022/03/10 12:58:52;;;;;;;;;;;-0.80;77.60;;;;;;5050540;28;20284;-74
2022/03/10 13:01:18;;;;;;;;;;;-0.80;77.90;;;;;;5051331;28;20028;-75
2022/03/10 13:03:44;;;;;;;;;;;-0.70;77.60;;;;;;5050011;28;20410;-74
2022/03/10 13:06:12;;;;;;;;;;;-0.80;76.20;;;;;;5050389;28;20019;-75
2022/03/10 13:08:43;;;;;;;;;;;-0.90;75.50;;;;;;5050058;28;20147;-75
2022/03/10 13:11:09;;;;;;;;;;;-0.90;76.00;;;;;;5051631;28;20012;-75
2022/03/10 13:13:35;;;;;;;;;;;-0.80;76.00;;;;;;5051254;28;19915;-74
2022/03/10 13:16:03;;;;;;;;;;;-0.70;76.10;;;;;;5050262;28;19920;-74
2022/03/10 13:18:38;;;;;;;;;;;-0.60;77.30;;;;;;5050385;28;19909;-74
2022/03/10 13:21:05;;;;;;;;;;;-0.50;76.60;;;;;;5050209;28;19924;-74
2022/03/10 13:23:31;;;;;;;;;;;-0.50;76.20;;;;;;5051094;28;20412;-75
2022/03/10 13:25:56;;;;;;;;;;;-0.50;73.90;;;;;;5051354;28;19952;-73
2022/03/10 13:28:24;;;;;;;;;;;-0.40;75.00;;;;;;5051370;28;19909;-74
2022/03/10 13:30:50;;;;;;;;;;;-0.40;75.50;;;;;;5049714;28;19964;-74
2022/03/10 13:33:17;;;;;;;;;;;-0.40;76.10;;;;;;5049912;28;19949;-74
2022/03/10 13:35:49;;;;;;;;;;;-0.50;74.90;;;;;;5051257;28;19943;-73
2022/03/10 13:38:18;;;;;;;;;;;-0.50;75.80;;;;;;5049971;28;20007;-75
2022/03/10 13:40:47;;;;;;;;;;;-0.60;75.50;;;;;;5049463;28;19920;-74
2022/03/10 13:43:23;;;;;;;;;;;-0.50;75.10;;;;;;5049543;28;19909;-75
2022/03/10 13:45:49;;;;;;;;;;;-0.60;75.50;;;;;;5049441;28;19940;-74
2022/03/10 13:48:19;;;;;;;;;;;-0.70;75.30;;;;;;5051197;28;20361;-75
2022/03/10 13:50:45;;;;;;;;;;;-0.60;74.80;;;;;;5049448;28;19951;-75
2022/03/10 13:53:11;;;;;;;;;;;-0.70;74.80;;;;;;5049433;28;19916;-75
2022/03/10 13:55:48;;;;;;;;;;;-0.70;75.40;;;;;;5050616;28;19912;-74
2022/03/10 13:58:14;;;;;;;;;;;-0.70;75.30;;;;;;5049621;28;20325;-75
2022/03/10 14:00:41;;;;;;;;;;;-0.80;75.50;;;;;;5050293;28;20399;-75
2022/03/10 14:03:08;;;;;;;;;;;-0.80;75.30;;;;;;5049382;28;19921;-75
2022/03/10 14:05:43;;;;;;;;;;;-0.80;76.20;;;;;;5050531;28;19940;-74
2022/03/10 14:08:12;;;;;;;;;;;-0.90;75.40;;;;;;5051231;28;20372;-74
2022/03/10 14:10:38;;;;;;;;;;;-1.00;74.40;;;;;;5050395;28;19963;-75
2022/03/10 14:13:04;;;;;;;;;;;-1.00;75.00;;;;;;5049523;28;19927;-75
2022/03/10 14:15:35;;;;;;;;;;;-1.00;75.20;;;;;;5049117;28;19916;-75
2022/03/10 14:18:06;;;;;;;;;;;-1.00;75.50;;;;;;5049718;28;19943;-74
2022/03/10 14:20:44;;;;;;;;;;;-1.10;75.90;;;;;;5050905;28;20440;-75
2022/03/10 14:23:10;;;;;;;;;;;-1.10;75.80;;;;;;5050973;28;19921;-74
2022/03/10 14:25:41;;;;;;;;;;;-1.10;76.00;;;;;;5050554;28;19915;-75